Time;durP1;ratioP1;P1;durP2;ratioP2;P2;SDS_P1;SDS_P2;PMS_P1;PMS_P2;Temp;Humidity;BMP_temperature;BMP_pressure;BME280_temperature;BME280_humidity;BME280_pressure;Samples;Min_cycle;Max_cycle;Signal;HPM_P1;HPM_P2
2024/01/29 00:02:18;;;;;;;;;22.75;16.00;;;;;3.41;96.04;102598.17;112439;244;39260;-54
2024/01/29 00:04:57;;;;;;;;;21.50;16.00;;;;;3.40;96.12;102601.93;112300;242;162851;-57
2024/01/29 00:07:37;;;;;;;;;17.25;12.50;;;;;3.39;96.14;102604.34;112434;244;39884;-59
2024/01/29 00:10:13;;;;;;;;;30.50;22.75;;;;;3.36;95.91;102605.02;112306;244;161626;-58
2024/01/29 00:12:53;;;;;;;;;22.00;18.33;;;;;3.35;95.95;102609.02;112425;244;40142;-59
2024/01/29 00:15:34;;;;;;;;;17.00;13.00;;;;;3.40;95.77;102608.94;112288;242;161810;-55
2024/01/29 00:18:15;;;;;;;;;31.00;22.33;;;;;3.42;95.70;102607.33;112412;243;39906;-55
2024/01/29 00:20:51;;;;;;;;;31.00;22.00;;;;;3.43;95.67;102608.56;112440;243;41330;-59
2024/01/29 00:23:29;;;;;;;;;23.25;18.00;;;;;3.40;95.86;102614.60;112277;242;162685;-59
2024/01/29 00:26:03;;;;;;;;;27.00;20.67;;;;;3.35;95.82;102615.94;112444;243;39929;-56
2024/01/29 00:28:42;;;;;;;;;21.00;16.00;;;;;3.37;95.76;102619.77;112276;242;161621;-56
2024/01/29 00:31:24;;;;;;;;;17.00;13.00;;;;;3.39;95.63;102611.27;112466;243;39439;-59
2024/01/29 00:34:10;;;;;;;;;17.25;13.25;;;;;3.39;95.44;102603.09;112330;242;161616;-58
2024/01/29 00:36:53;;;;;;;;;18.50;14.00;;;;;3.39;95.41;102603.27;112392;243;41531;-58
2024/01/29 00:39:33;;;;;;;;;17.00;14.33;;;;;3.36;95.36;102605.05;112337;242;161407;-55
2024/01/29 00:42:10;;;;;;;;;20.25;15.75;;;;;3.31;95.47;102598.58;112451;244;39368;-55
2024/01/29 00:44:52;;;;;;;;;17.75;13.00;;;;;3.26;95.58;102599.57;112519;244;41078;-55
2024/01/29 00:47:30;;;;;;;;;22.00;18.00;;;;;3.28;95.27;102599.11;112285;244;161129;-55
2024/01/29 00:50:08;;;;;;;;;24.00;18.00;;;;;3.30;95.21;102599.35;112468;243;40425;-55
2024/01/29 00:52:45;;;;;;;;;15.00;11.00;;;;;3.30;95.17;102599.00;112323;242;161894;-56
2024/01/29 00:55:20;;;;;;;;;15.25;12.25;;;;;3.26;95.19;102591.02;112430;244;40079;-59
2024/01/29 00:58:05;;;;;;;;;15.50;12.00;;;;;3.25;95.23;102587.15;112289;242;162149;-59
2024/01/29 01:00:49;;;;;;;;;19.00;15.00;;;;;3.21;95.13;102583.29;112442;244;40709;-59
2024/01/29 01:03:26;;;;;;;;;20.00;14.00;;;;;3.04;95.02;102580.57;112284;244;162063;-59
2024/01/29 01:06:04;;;;;;;;;17.50;13.50;;;;;2.97;94.97;102580.61;112401;244;39642;-54
2024/01/29 01:08:41;;;;;;;;;17.00;13.00;;;;;2.84;95.05;102577.80;112365;244;39969;-54
2024/01/29 01:11:26;;;;;;;;;19.67;15.33;;;;;2.72;95.19;102577.21;112286;242;161586;-55
2024/01/29 01:14:09;;;;;;;;;13.00;9.75;;;;;2.67;95.30;102572.55;112437;244;40071;-58
2024/01/29 01:16:46;;;;;;;;;15.00;10.75;;;;;2.55;95.01;102564.66;112384;244;39379;-59
2024/01/29 01:19:29;;;;;;;;;11.67;9.67;;;;;2.40;95.00;102563.38;112473;244;40263;-58
2024/01/29 01:22:07;;;;;;;;;11.33;9.00;;;;;2.27;94.93;102565.51;112410;243;39698;-58
2024/01/29 01:24:45;;;;;;;;;13.33;10.33;;;;;2.23;94.96;102564.64;112481;244;41455;-58
2024/01/29 01:27:23;;;;;;;;;13.00;11.00;;;;;2.19;94.90;102559.19;112452;244;39131;-57
2024/01/29 01:30:06;;;;;;;;;11.00;9.00;;;;;2.18;94.77;102559.09;112333;242;161918;-56
2024/01/29 01:32:43;;;;;;;;;13.00;10.00;;;;;2.09;94.83;102560.13;112447;244;40266;-55
2024/01/29 01:35:27;;;;;;;;;14.00;10.00;;;;;2.02;94.84;102566.00;112494;244;40581;-55
2024/01/29 01:38:11;;;;;;;;;13.00;10.00;;;;;1.87;94.62;102563.63;112457;244;40604;-56
2024/01/29 01:40:48;;;;;;;;;12.00;9.75;;;;;1.69;94.80;102569.30;112330;242;162134;-56
2024/01/29 01:43:24;;;;;;;;;14.25;10.00;;;;;1.59;94.81;102571.83;112453;245;40988;-56
2024/01/29 01:46:21;;;;;;;;;17.00;12.00;;;;;1.52;94.84;102566.70;112338;242;161153;-60
2024/01/29 01:49:11;;;;;;;;;9.25;7.00;;;;;1.37;94.84;102568.67;112431;243;39324;-57
2024/01/29 01:51:52;;;;;;;;;12.25;10.00;;;;;1.25;94.95;102572.15;112311;242;161275;-58
2024/01/29 01:54:32;;;;;;;;;10.00;7.00;;;;;1.13;94.92;102572.71;112423;244;39279;-56
2024/01/29 01:57:08;;;;;;;;;12.00;9.00;;;;;1.05;95.09;102572.94;112418;244;39848;-55
2024/01/29 01:59:47;;;;;;;;;11.00;8.25;;;;;1.00;95.12;102575.52;112251;242;161090;-55
2024/01/29 02:02:22;;;;;;;;;12.00;9.00;;;;;0.95;95.46;102573.29;112386;243;39910;-55
2024/01/29 02:05:01;;;;;;;;;11.00;8.25;;;;;0.91;95.50;102576.34;112335;242;161391;-59
2024/01/29 02:07:38;;;;;;;;;11.00;8.00;;;;;0.90;95.57;102579.77;112383;244;40049;-59
2024/01/29 02:10:16;;;;;;;;;12.00;9.00;;;;;0.90;95.73;102585.61;112312;242;161791;-55
2024/01/29 02:12:53;;;;;;;;;10.75;8.25;;;;;0.87;95.79;102587.86;112447;243;41589;-56
2024/01/29 02:15:32;;;;;;;;;15.25;11.00;;;;;0.90;95.84;102585.58;112517;243;39779;-55
2024/01/29 02:18:08;;;;;;;;;11.50;9.00;;;;;0.90;95.96;102581.33;112349;242;161355;-55
2024/01/29 02:20:44;;;;;;;;;11.00;8.00;;;;;0.89;95.94;102576.05;112534;244;39931;-54
2024/01/29 02:23:19;;;;;;;;;11.00;9.00;;;;;0.88;96.03;102574.02;112349;242;161913;-54
2024/01/29 02:25:58;;;;;;;;;10.00;8.00;;;;;0.85;96.10;102573.08;112563;243;40098;-58
2024/01/29 02:28:37;;;;;;;;;12.00;9.00;;;;;0.86;96.19;102570.15;112397;242;161186;-60
2024/01/29 02:31:17;;;;;;;;;12.00;9.00;;;;;0.90;96.26;102570.88;112483;244;39349;-54
2024/01/29 02:34:01;;;;;;;;;9.00;8.00;;;;;0.94;96.36;102574.56;112359;242;161631;-54
2024/01/29 02:36:44;;;;;;;;;12.00;9.00;;;;;0.96;96.49;102577.34;112419;243;39343;-57
2024/01/29 02:39:27;;;;;;;;;11.00;8.00;;;;;1.02;96.60;102581.45;112476;243;40253;-54
2024/01/29 02:42:06;;;;;;;;;9.00;7.50;;;;;1.04;96.71;102584.20;112270;242;161224;-53
2024/01/29 02:44:46;;;;;;;;;14.00;10.00;;;;;1.06;96.72;102585.33;112419;243;40126;-57
2024/01/29 02:47:24;;;;;;;;;11.75;9.00;;;;;1.09;96.75;102588.52;112250;243;161369;-57
2024/01/29 02:50:04;;;;;;;;;11.00;9.00;;;;;1.12;96.78;102589.27;112423;244;39681;-58
2024/01/29 02:52:45;;;;;;;;;10.00;8.00;;;;;1.12;96.77;102594.27;112289;244;161291;-58
2024/01/29 02:55:25;;;;;;;;;15.00;11.00;;;;;1.17;96.72;102599.53;112408;243;39699;-59
2024/01/29 02:58:03;;;;;;;;;12.50;9.50;;;;;1.14;96.84;102602.48;112296;243;161805;-59
2024/01/29 03:00:44;;;;;;;;;13.00;9.00;;;;;1.08;96.91;102600.47;112437;244;41394;-55
2024/01/29 03:03:21;;;;;;;;;11.67;9.00;;;;;1.08;96.97;102591.61;112432;244;40197;-55
2024/01/29 03:06:01;;;;;;;;;10.33;8.00;;;;;1.06;97.03;102589.58;112342;242;160960;-59
2024/01/29 03:08:36;;;;;;;;;12.00;8.00;;;;;0.99;96.91;102584.95;112481;243;40036;-59
2024/01/29 03:11:17;;;;;;;;;8.33;7.00;;;;;0.91;96.77;102580.38;112358;244;160952;-58
2024/01/29 03:13:57;;;;;;;;;9.00;7.00;;;;;0.87;96.64;102577.05;112477;244;40454;-58
2024/01/29 03:16:36;;;;;;;;;9.00;7.00;;;;;0.77;96.69;102571.89;112322;244;161107;-58
2024/01/29 03:19:18;;;;;;;;;10.00;7.00;;;;;0.67;96.61;102572.19;112483;243;41297;-59
2024/01/29 03:21:58;;;;;;;;;10.00;8.00;;;;;0.59;96.59;102568.64;112339;243;161584;-59
2024/01/29 03:24:41;;;;;;;;;13.00;9.00;;;;;0.48;96.39;102565.09;112413;244;40699;-55
2024/01/29 03:27:16;;;;;;;;;18.50;11.00;;;;;0.42;96.58;102566.58;112385;244;40195;-55
2024/01/29 03:29:55;;;;;;;;;11.00;9.00;;;;;0.32;96.66;102564.96;112306;242;161466;-58
2024/01/29 03:32:31;;;;;;;;;10.75;8.00;;;;;0.20;96.55;102558.79;112416;243;40065;-58
2024/01/29 03:35:09;;;;;;;;;14.00;10.00;;;;;0.10;96.53;102551.46;112259;244;161306;-54
2024/01/29 03:37:48;;;;;;;;;12.00;9.00;;;;;0.08;96.54;102546.98;112412;244;41256;-53
2024/01/29 03:40:30;;;;;;;;;9.00;7.00;;;;;0.06;96.65;102547.40;112279;242;162018;-54
2024/01/29 03:43:08;;;;;;;;;10.00;7.00;;;;;0.03;96.82;102543.84;112381;244;39622;-58
2024/01/29 03:45:50;;;;;;;;;11.00;9.00;;;;;0.00;96.77;102542.54;112445;244;39587;-54
2024/01/29 03:48:31;;;;;;;;;13.00;10.00;;;;;0.06;96.83;102539.98;112429;244;39462;-54
2024/01/29 03:51:07;;;;;;;;;16.50;10.50;;;;;0.04;96.92;102532.77;112480;244;40913;-58
2024/01/29 03:53:49;;;;;;;;;14.00;10.75;;;;;-0.04;96.84;102526.95;112341;243;161717;-57
2024/01/29 03:56:27;;;;;;;;;11.00;8.00;;;;;-0.14;96.75;102522.47;112457;244;39622;-56
2024/01/29 03:59:04;;;;;;;;;13.00;9.00;;;;;-0.20;96.75;102520.61;112357;244;161605;-57
2024/01/29 04:01:48;;;;;;;;;14.75;10.00;;;;;-0.28;96.82;102516.38;112476;244;40398;-57
2024/01/29 04:04:27;;;;;;;;;7.25;6.00;;;;;-0.33;96.87;102515.33;112279;243;161922;-55
2024/01/29 04:07:07;;;;;;;;;8.00;6.00;;;;;-0.31;96.99;102517.58;112461;244;39638;-54
2024/01/29 04:09:44;;;;;;;;;8.67;6.00;;;;;-0.34;96.98;102517.85;112424;244;39321;-58
2024/01/29 04:12:20;;;;;;;;;11.00;8.00;;;;;-0.32;96.98;102512.68;112298;246;41267;-58
2024/01/29 04:14:58;;;;;;;;;15.67;10.00;;;;;-0.31;96.89;102508.70;112448;245;38876;-54
2024/01/29 04:17:37;;;;;;;;;16.00;11.00;;;;;-0.33;96.98;102505.42;112315;242;162398;-54
2024/01/29 04:20:12;;;;;;;;;13.00;8.00;;;;;-0.41;96.90;102510.03;112443;244;40655;-56
2024/01/29 04:22:52;;;;;;;;;17.00;9.00;;;;;-0.48;97.06;102506.63;112315;235;165162;-56
2024/01/29 04:25:35;;;;;;;;;10.25;6.75;;;;;-0.44;97.00;102506.48;112492;244;39306;-57
2024/01/29 04:28:09;;;;;;;;;13.00;9.00;;;;;-0.46;97.16;102500.36;112296;243;161113;-56
2024/01/29 04:30:45;;;;;;;;;14.00;12.00;;;;;-0.47;97.41;102498.62;112461;245;39653;-58
2024/01/29 04:33:25;;;;;;;;;8.75;7.00;;;;;-0.39;97.52;102495.62;112449;245;39119;-57
2024/01/29 04:36:05;;;;;;;;;10.33;7.67;;;;;-0.39;97.67;102498.61;112339;243;160962;-53
2024/01/29 04:38:45;;;;;;;;;10.50;7.00;;;;;-0.44;97.68;102498.64;112456;245;39924;-54
2024/01/29 04:41:28;;;;;;;;;12.75;8.00;;;;;-0.49;97.59;102496.77;112307;245;161471;-54
2024/01/29 04:44:09;;;;;;;;;13.00;10.00;;;;;-0.51;97.60;102498.65;112519;245;40304;-55
2024/01/29 04:46:52;;;;;;;;;11.00;9.00;;;;;-0.49;97.70;102503.15;112311;243;161653;-54
2024/01/29 04:49:35;;;;;;;;;10.50;6.75;;;;;-0.45;97.81;102501.54;112496;244;39030;-55
2024/01/29 04:52:24;;;;;;;;;10.00;7.33;;;;;-0.38;98.03;102502.46;112235;243;161633;-54
2024/01/29 04:55:01;;;;;;;;;15.00;12.00;;;;;-0.29;98.07;102496.23;112199;245;39557;-56
2024/01/29 04:57:43;;;;;;;;;10.00;7.00;;;;;-0.30;98.05;102500.89;112376;245;41499;-56
2024/01/29 05:00:22;;;;;;;;;14.33;9.00;;;;;-0.31;98.03;102501.63;112325;245;40089;-53
2024/01/29 05:02:58;;;;;;;;;15.00;10.00;;;;;-0.28;98.06;102505.00;112422;246;40749;-52
2024/01/29 05:05:37;;;;;;;;;11.00;8.00;;;;;-0.26;98.06;102512.22;111928;243;465111;-58
2024/01/29 05:08:13;;;;;;;;;14.00;10.67;;;;;-0.26;98.19;102508.48;112418;244;40574;-55
2024/01/29 05:10:51;;;;;;;;;17.00;11.00;;;;;-0.24;97.96;102510.51;112172;244;161706;-53
2024/01/29 05:13:30;;;;;;;;;14.00;10.00;;;;;-0.31;98.03;102513.65;112257;246;40535;-53
2024/01/29 05:16:09;;;;;;;;;15.25;11.50;;;;;-0.31;97.87;102518.12;112333;243;161966;-54
2024/01/29 05:18:49;;;;;;;;;10.50;7.25;;;;;-0.31;97.98;102524.83;112424;244;39472;-54
2024/01/29 05:21:30;;;;;;;;;11.00;8.00;;;;;-0.31;97.92;102523.41;112450;244;39318;-54
2024/01/29 05:24:06;;;;;;;;;12.00;9.00;;;;;-0.32;97.99;102521.15;112346;242;161454;-58
2024/01/29 05:26:46;;;;;;;;;11.50;9.00;;;;;-0.28;98.12;102520.63;112498;244;40154;-58
2024/01/29 05:29:24;;;;;;;;;14.00;9.00;;;;;-0.24;98.19;102520.77;112234;244;161524;-58
2024/01/29 05:32:01;;;;;;;;;16.00;11.25;;;;;-0.15;98.28;102519.67;112447;246;39917;-58
2024/01/29 05:34:38;;;;;;;;;14.00;11.00;;;;;-0.06;98.53;102515.70;112358;243;161828;-59
2024/01/29 05:37:21;;;;;;;;;14.00;9.00;;;;;0.03;98.56;102516.04;112348;245;39641;-59
2024/01/29 05:40:06;;;;;;;;;11.67;8.33;;;;;0.07;98.54;102511.41;112347;242;161475;-58
2024/01/29 05:42:51;;;;;;;;;12.00;8.00;;;;;0.19;98.57;102515.26;112405;243;40721;-58
2024/01/29 05:45:36;;;;;;;;;14.00;10.00;;;;;0.29;98.63;102513.56;112405;243;39474;-55
2024/01/29 05:48:12;;;;;;;;;15.00;10.00;;;;;0.39;98.81;102503.30;112276;243;162208;-55
2024/01/29 05:50:48;;;;;;;;;13.00;9.25;;;;;0.49;98.66;102503.17;112462;244;39372;-57
2024/01/29 05:53:24;;;;;;;;;14.00;9.00;;;;;0.60;98.66;102510.98;112289;244;161670;-56
2024/01/29 05:56:11;;;;;;;;;11.25;8.00;;;;;0.63;98.56;102508.39;112397;243;39544;-62
2024/01/29 05:58:49;;;;;;;;;15.00;9.00;;;;;0.66;98.63;102506.47;112231;243;162411;-58
2024/01/29 06:01:30;;;;;;;;;10.00;7.00;;;;;0.71;98.63;102507.11;112410;244;41073;-57
2024/01/29 06:04:10;;;;;;;;;12.00;9.00;;;;;0.78;98.62;102506.07;112304;243;161509;-56
2024/01/29 06:06:48;;;;;;;;;11.00;8.00;;;;;0.81;98.51;102505.52;112428;243;38923;-56
2024/01/29 06:09:28;;;;;;;;;12.00;9.00;;;;;0.87;98.51;102509.29;112431;243;39085;-53
2024/01/29 06:12:06;;;;;;;;;16.75;11.25;;;;;0.94;98.39;102505.55;112309;243;161210;-52
2024/01/29 06:14:45;;;;;;;;;9.00;7.00;;;;;0.95;98.43;102504.62;112473;244;40125;-57
2024/01/29 06:17:25;;;;;;;;;12.75;9.00;;;;;0.95;98.41;102509.41;112259;244;160859;-57
2024/01/29 06:20:00;;;;;;;;;12.00;8.67;;;;;0.97;98.34;102514.46;112446;244;40648;-54
2024/01/29 06:22:54;;;;;;;;;13.00;9.75;;;;;1.01;98.40;102516.22;112252;242;161329;-54
2024/01/29 06:25:32;;;;;;;;;13.00;9.00;;;;;1.08;98.34;102517.83;112404;245;39177;-56
2024/01/29 06:28:17;;;;;;;;;14.00;10.00;;;;;1.15;98.16;102516.23;112310;242;162947;-57
2024/01/29 06:31:04;;;;;;;;;14.67;8.67;;;;;1.20;98.23;102514.01;112406;245;40417;-58
2024/01/29 06:33:41;;;;;;;;;12.00;8.00;;;;;1.23;98.13;102518.13;112444;245;40584;-58
2024/01/29 06:36:20;;;;;;;;;13.00;10.00;;;;;1.26;98.10;102516.57;112239;244;160164;-57
2024/01/29 06:39:00;;;;;;;;;12.75;10.50;;;;;1.24;97.97;102512.23;112432;245;39764;-58
2024/01/29 06:41:41;;;;;;;;;18.00;11.00;;;;;1.24;97.77;102517.21;112235;245;161104;-54
2024/01/29 06:44:19;;;;;;;;;17.00;10.00;;;;;1.21;97.84;102523.17;112303;246;39232;-54
2024/01/29 06:46:56;;;;;;;;;13.50;9.25;;;;;1.23;97.75;102525.04;112119;246;161062;-54
2024/01/29 06:49:35;;;;;;;;;13.00;10.00;;;;;1.23;97.69;102525.23;112207;246;41809;-56
2024/01/29 06:52:19;;;;;;;;;10.00;8.00;;;;;1.24;97.66;102521.79;112366;244;161091;-56
2024/01/29 06:55:01;;;;;;;;;11.00;8.00;;;;;1.26;97.58;102517.77;112393;246;39457;-53
2024/01/29 06:57:39;;;;;;;;;13.00;8.00;;;;;1.29;97.43;102511.24;112546;246;39384;-53
2024/01/29 07:00:18;;;;;;;;;19.25;13.00;;;;;1.33;97.41;102506.95;112373;245;39834;-56
2024/01/29 07:02:54;;;;;;;;;14.00;10.00;;;;;1.36;97.31;102507.33;112449;245;42841;-57
2024/01/29 07:05:31;;;;;;;;;14.25;11.00;;;;;1.40;97.35;102509.27;112206;244;161664;-53
2024/01/29 07:08:08;;;;;;;;;11.67;8.33;;;;;1.45;97.31;102510.26;112436;245;39031;-53
2024/01/29 07:10:48;;;;;;;;;14.00;11.00;;;;;1.52;97.19;102503.97;112423;244;161483;-57
2024/01/29 07:13:32;;;;;;;;;16.50;12.75;;;;;1.59;97.37;102504.85;112477;246;40107;-57
2024/01/29 07:16:07;;;;;;;;;17.00;12.00;;;;;1.66;97.28;102506.45;112417;244;162050;-58
2024/01/29 07:18:44;;;;;;;;;14.00;11.00;;;;;1.75;97.09;102505.45;112394;246;41416;-58
2024/01/29 07:21:24;;;;;;;;;11.00;8.00;;;;;1.81;96.99;102502.25;112523;246;40217;-57
2024/01/29 07:24:05;;;;;;;;;11.50;9.00;;;;;1.93;96.93;102502.70;112289;244;162060;-57
2024/01/29 07:26:46;;;;;;;;;15.00;11.00;;;;;2.02;96.60;102503.09;112496;246;41175;-57
2024/01/29 07:29:26;;;;;;;;;14.00;10.75;;;;;2.10;96.28;102499.63;112200;244;161832;-58
2024/01/29 07:32:08;;;;;;;;;13.00;9.00;;;;;2.16;96.17;102498.56;112478;245;39773;-58
2024/01/29 07:34:49;;;;;;;;;18.50;13.25;;;;;2.20;96.26;102503.85;112010;244;161653;-56
2024/01/29 07:37:25;;;;;;;;;12.00;8.00;;;;;2.28;95.91;102506.46;112437;245;39383;-56
2024/01/29 07:40:08;;;;;;;;;12.00;9.00;;;;;2.33;95.62;102510.02;112344;242;161462;-54
2024/01/29 07:42:49;;;;;;;;;10.00;8.00;;;;;2.71;96.14;102507.19;112439;244;39916;-55
2024/01/29 07:45:25;;;;;;;;;10.00;6.00;;;;;3.92;96.12;102499.70;112503;244;40239;-55
2024/01/29 07:48:03;;;;;;;;;16.75;11.00;;;;;4.81;93.75;102507.65;112297;242;160968;-55
2024/01/29 07:50:45;;;;;;;;;10.25;7.25;;;;;4.91;92.26;102510.23;112514;244;39588;-54
2024/01/29 07:53:25;;;;;;;;;7.33;5.67;;;;;5.76;93.47;102499.05;112335;242;160553;-54
2024/01/29 07:56:07;;;;;;;;;12.00;10.00;;;;;6.25;93.09;102498.92;112497;244;40964;-58
2024/01/29 07:58:46;;;;;;;;;12.75;10.00;;;;;6.15;90.53;102499.66;112385;242;161498;-58
2024/01/29 08:01:34;;;;;;;;;11.75;9.00;;;;;6.18;90.26;102502.47;112388;244;39715;-58
2024/01/29 08:04:08;;;;;;;;;9.25;8.00;;;;;5.94;88.98;102505.82;112323;242;161100;-54
2024/01/29 08:06:51;;;;;;;;;11.67;8.00;;;;;5.45;88.62;102515.68;112389;244;39464;-53
2024/01/29 08:09:36;;;;;;;;;9.33;7.67;;;;;5.24;88.69;102519.39;112458;244;40073;-56
2024/01/29 08:12:12;;;;;;;;;10.00;8.00;;;;;6.59;89.39;102509.30;112257;242;160833;-57
2024/01/29 08:14:51;;;;;;;;;12.25;9.25;;;;;8.26;88.50;102503.30;112446;244;40861;-58
2024/01/29 08:17:37;;;;;;;;;13.75;11.00;;;;;9.39;84.58;102497.52;112248;243;162295;-59
2024/01/29 08:20:14;;;;;;;;;13.33;12.00;;;;;10.16;83.11;102487.52;112454;244;40330;-59
2024/01/29 08:22:51;;;;;;;;;16.00;13.00;;;;;10.54;81.33;102484.27;112324;243;161845;-59
2024/01/29 08:25:29;;;;;;;;;14.00;10.67;;;;;10.76;80.76;102482.95;112483;244;41190;-54
2024/01/29 08:28:08;;;;;;;;;15.75;13.00;;;;;11.21;79.91;102486.02;112359;243;161664;-54
2024/01/29 08:30:47;;;;;;;;;12.00;10.00;;;;;11.44;78.25;102489.94;112445;244;39454;-54
2024/01/29 08:33:24;;;;;;;;;13.00;10.67;;;;;11.10;77.42;102491.54;112455;244;39815;-54
2024/01/29 08:36:06;;;;;;;;;13.00;9.00;;;;;10.18;76.43;102494.70;112331;243;161526;-54
2024/01/29 08:38:49;;;;;;;;;11.00;8.00;;;;;8.99;75.19;102500.39;112480;244;39457;-54
2024/01/29 08:41:27;;;;;;;;;10.33;7.00;;;;;7.91;75.38;102499.49;112259;242;161391;-55
2024/01/29 08:44:05;;;;;;;;;11.00;9.00;;;;;7.13;76.23;102500.60;112408;244;39570;-56
2024/01/29 08:46:40;;;;;;;;;9.00;6.00;;;;;6.66;76.86;102506.52;112263;242;161570;-55
2024/01/29 08:49:21;;;;;;;;;9.25;6.50;;;;;6.28;77.40;102506.73;112426;244;41048;-53
2024/01/29 08:52:01;;;;;;;;;6.25;4.75;;;;;6.08;78.09;102504.81;112322;242;162300;-53
2024/01/29 08:54:42;;;;;;;;;9.50;8.25;;;;;6.75;78.49;102508.33;112410;244;39803;-54
2024/01/29 08:57:25;;;;;;;;;15.00;10.00;;;;;7.36;76.39;102507.41;112421;244;40061;-54
2024/01/29 09:00:07;;;;;;;;;10.00;8.00;;;;;8.01;78.47;102502.69;112285;242;162693;-53
2024/01/29 09:02:43;;;;;;;;;11.00;9.00;;;;;8.14;77.71;102499.47;112426;244;40230;-53
2024/01/29 09:05:20;;;;;;;;;11.00;9.00;;;;;7.97;76.34;102506.17;112270;242;161345;-58
2024/01/29 09:08:05;;;;;;;;;11.00;9.00;;;;;7.59;76.18;102512.23;112425;244;40078;-58
2024/01/29 09:10:49;;;;;;;;;8.00;7.00;;;;;7.32;76.92;102512.91;112270;244;161458;-57
2024/01/29 09:13:25;;;;;;;;;11.00;8.00;;;;;7.47;76.19;102511.59;112404;245;39342;-57
2024/01/29 09:15:59;;;;;;;;;12.00;9.00;;;;;7.66;75.75;102506.36;112377;243;161249;-56
2024/01/29 09:18:42;;;;;;;;;11.33;8.33;;;;;8.14;76.93;102503.27;112448;244;41217;-57
2024/01/29 09:21:25;;;;;;;;;13.00;10.00;;;;;8.87;77.26;102506.10;112475;244;39435;-59
2024/01/29 09:24:04;;;;;;;;;10.00;8.00;;;;;9.56;75.66;102503.95;112342;244;161364;-55
2024/01/29 09:26:38;;;;;;;;;10.00;8.00;;;;;9.78;75.60;102498.23;112441;245;39164;-53
2024/01/29 09:29:16;;;;;;;;;13.00;9.33;;;;;10.08;73.95;102491.46;112369;244;161430;-55
2024/01/29 09:31:53;;;;;;;;;11.50;9.00;;;;;10.42;72.88;102486.12;112444;245;41128;-54
2024/01/29 09:34:33;;;;;;;;;13.50;11.00;;;;;11.06;71.81;102487.34;112315;244;161816;-55
2024/01/29 09:37:08;;;;;;;;;13.67;10.00;;;;;11.44;70.78;102489.23;112425;245;41044;-54
2024/01/29 09:39:47;;;;;;;;;14.00;12.00;;;;;11.65;71.10;102485.25;112472;245;40089;-55
2024/01/29 09:42:29;;;;;;;;;10.50;8.75;;;;;11.97;69.42;102485.63;112116;246;40609;-55
2024/01/29 09:45:10;;;;;;;;;12.00;10.00;;;;;12.17;66.41;102484.91;112439;246;39557;-58
2024/01/29 09:47:47;;;;;;;;;16.00;14.00;;;;;11.98;66.71;102480.11;112128;244;162072;-57
2024/01/29 09:50:37;;;;;;;;;15.00;12.50;;;;;12.21;65.77;102479.95;112430;245;41320;-54
2024/01/29 09:53:20;;;;;;;;;12.00;11.00;;;;;12.30;65.98;102478.34;112276;242;162073;-55
2024/01/29 09:56:03;;;;;;;;;15.00;12.00;;;;;12.18;67.23;102476.63;112427;245;39230;-56
2024/01/29 09:58:37;;;;;;;;;16.00;12.00;;;;;12.31;67.75;102473.03;112299;242;161683;-57
2024/01/29 10:01:18;;;;;;;;;12.00;10.00;;;;;12.54;67.77;102472.56;112451;245;41173;-54
2024/01/29 10:03:55;;;;;;;;;14.75;13.00;;;;;12.83;66.43;102475.10;112499;245;40319;-55
2024/01/29 10:06:30;;;;;;;;;13.00;11.00;;;;;12.70;66.38;102473.10;112191;246;40210;-55
2024/01/29 10:09:13;;;;;;;;;13.75;11.25;;;;;13.13;64.28;102471.15;112507;246;39218;-57
2024/01/29 10:11:54;;;;;;;;;14.00;11.00;;;;;13.23;64.97;102466.83;112468;246;39599;-57
2024/01/29 10:14:34;;;;;;;;;14.00;12.00;;;;;13.45;63.22;102462.38;112527;246;39449;-54
2024/01/29 10:17:25;;;;;;;;;11.67;10.00;;;;;13.43;61.23;102457.89;112316;242;161560;-54
2024/01/29 10:20:20;;;;;;;;;11.50;9.50;;;;;13.33;62.15;102453.86;112431;246;39855;-58
2024/01/29 10:23:04;;;;;;;;;14.75;13.00;;;;;13.47;61.35;102449.80;112292;243;162610;-55
2024/01/29 10:25:43;;;;;;;;;12.00;9.00;;;;;12.82;59.89;102446.20;112182;245;40160;-53
2024/01/29 10:28:26;;;;;;;;;14.33;11.00;;;;;12.49;61.49;102443.77;112318;244;161491;-53
2024/01/29 10:31:02;;;;;;;;;16.00;12.00;;;;;12.08;61.07;102439.23;112412;246;40891;-56
2024/01/29 10:33:42;;;;;;;;;16.00;13.00;;;;;11.40;61.26;102441.04;112466;246;40638;-56
2024/01/29 10:36:18;;;;;;;;;14.25;12.25;;;;;10.66;61.04;102445.83;112144;246;161264;-53
2024/01/29 10:38:58;;;;;;;;;14.50;11.50;;;;;10.07;62.12;102446.16;112444;246;39991;-53
2024/01/29 10:41:44;;;;;;;;;13.75;11.25;;;;;9.59;63.12;102453.33;111912;245;160963;-56
2024/01/29 10:44:25;;;;;;;;;14.00;10.00;;;;;9.08;63.23;102455.59;112490;245;40626;-53
2024/01/29 10:47:06;;;;;;;;;14.00;10.33;;;;;8.80;63.85;102449.52;112212;243;160785;-54
2024/01/29 10:49:45;;;;;;;;;16.00;11.00;;;;;8.59;64.28;102450.40;112464;245;38985;-54
2024/01/29 10:52:27;;;;;;;;;19.00;14.00;;;;;8.38;64.38;102453.97;112323;245;161429;-54
2024/01/29 10:55:05;;;;;;;;;14.75;11.50;;;;;7.96;65.04;102449.81;112492;246;41051;-52
2024/01/29 10:57:47;;;;;;;;;14.00;10.00;;;;;7.69;65.66;102444.96;112524;245;39700;-53
2024/01/29 11:00:28;;;;;;;;;15.00;12.00;;;;;7.59;66.18;102445.90;112357;244;160808;-53
2024/01/29 11:03:09;;;;;;;;;11.75;8.50;;;;;7.41;66.94;102442.35;112532;245;39644;-52
2024/01/29 11:05:50;;;;;;;;;16.50;13.00;;;;;7.35;67.16;102443.92;112327;244;161103;-55
2024/01/29 11:08:33;;;;;;;;;14.00;11.25;;;;;7.24;67.31;102443.67;112523;246;39795;-56
2024/01/29 11:11:09;;;;;;;;;17.00;12.00;;;;;7.14;67.38;102448.04;112554;245;40995;-53
2024/01/29 11:13:43;;;;;;;;;16.00;12.00;;;;;7.04;67.39;102446.45;112544;245;40556;-55
2024/01/29 11:16:22;;;;;;;;;14.75;10.50;;;;;6.90;67.77;102442.89;112421;244;161209;-56
2024/01/29 11:19:02;;;;;;;;;14.00;11.00;;;;;6.72;67.97;102438.54;112406;245;40151;-54
2024/01/29 11:21:48;;;;;;;;;9.50;7.00;;;;;6.61;68.37;102434.56;112430;245;40170;-56
2024/01/29 11:24:29;;;;;;;;;9.67;6.00;;;;;6.45;69.04;102429.23;112425;245;40423;-57
2024/01/29 11:27:14;;;;;;;;;12.00;9.00;;;;;6.36;69.10;102429.08;112258;245;39998;-57
2024/01/29 11:29:52;;;;;;;;;13.33;11.00;;;;;6.29;69.23;102429.02;112213;245;160864;-52
2024/01/29 11:32:36;;;;;;;;;10.00;8.00;;;;;6.27;69.48;102426.52;112532;246;40044;-52
2024/01/29 11:35:18;;;;;;;;;9.33;7.00;;;;;6.21;69.82;102425.12;112335;243;161318;-56
2024/01/29 11:38:08;;;;;;;;;13.00;11.00;;;;;6.16;70.38;102418.70;112489;245;40815;-56
2024/01/29 11:40:46;;;;;;;;;12.00;9.00;;;;;6.16;70.13;102413.05;112386;244;160980;-57
2024/01/29 11:43:22;;;;;;;;;11.75;7.75;;;;;6.10;70.23;102415.80;112173;245;39418;-56
2024/01/29 11:45:59;;;;;;;;;9.00;7.00;;;;;6.05;70.60;102413.80;112614;246;39057;-53
2024/01/29 11:48:42;;;;;;;;;8.50;6.75;;;;;6.06;70.67;102410.86;112340;245;160441;-52
2024/01/29 11:51:20;;;;;;;;;12.00;10.00;;;;;6.06;71.04;102405.13;112486;245;39019;-54
2024/01/29 11:53:59;;;;;;;;;14.00;8.00;;;;;6.08;70.86;102409.85;112250;245;162008;-53
2024/01/29 11:56:40;;;;;;;;;11.50;7.00;;;;;6.08;70.85;102400.33;112438;245;39318;-55
2024/01/29 11:59:19;;;;;;;;;13.00;10.00;;;;;6.10;71.06;102396.45;112252;244;160773;-55
2024/01/29 12:02:01;;;;;;;;;13.00;10.00;;;;;6.12;71.00;102394.92;112410;246;39725;-55
2024/01/29 12:04:43;;;;;;;;;11.00;9.00;;;;;6.11;71.27;102388.14;112280;244;161167;-55
2024/01/29 12:07:20;;;;;;;;;9.00;7.00;;;;;6.08;71.34;102380.48;112375;246;41277;-55
2024/01/29 12:10:00;;;;;;;;;16.00;11.25;;;;;6.11;71.42;102377.63;112451;246;39434;-55
2024/01/29 12:12:38;;;;;;;;;9.00;7.00;;;;;6.09;71.52;102374.19;112141;244;160916;-55
2024/01/29 12:15:15;;;;;;;;;8.50;7.50;;;;;6.06;71.65;102371.85;112556;245;41166;-52